Quincy, IL

11:04 AM CDT on August 30, 2014 (GMT -0500)
Adams County Emergency Management | Change Station
CLOSE
Current Station
Personal Weather Station
Location: Quincy, IL
Elevation: 725 ft
Nearby Weather Stations

Elev 725 ft 39.93 °N, 91.33 °W | Updated 13 seconds ago

Mostly Cloudy
Mostly Cloudy
81.9 °F
Feels Like 87 °F
N
0.0
Wind Variable Wind from SSW
Gusts 9.0 mph

Today
High -- | Low -- °F
--% Chance of Precip.
Yesterday
High -- | Low -- °F
Precip. -- in
6:31 AM 7:39 PM
Waxing Crescent, 23% visible
Pressure 29.90 in
Visibility 10.0 miles
Clouds Mostly Cloudy 2100 ft
Heat Index 87 °F
Dew Point 73 °F
Humidity 74%
Rainfall 0.07 in
Snow Depth Not available.
UV 4 out of 12
Pollen 6.40 out of 12
Air Quality Not available.
Flu Activity Not available.
METAR KUIN 301554Z AUTO 22009KT 10SM BKN021 26/21 A2992 RMK AO2 SLP124 T02560211

More Conditions Fewer Conditions

Pressure 29.90 in
Visibility 10.0 miles
Clouds Mostly Cloudy 2100 ft
Heat Index 87 °F
Dew Point 73 °F
Humidity 74%
Rainfall 0.07 in
Snow Depth Not available.
UV 4 out of 12
Pollen 6.40 out of 12
Air Quality Not available.
Flu Activity Not available.
METAR KUIN 301554Z AUTO 22009KT 10SM BKN021 26/21 A2992 RMK AO2 SLP124 T02560211

More Conditions Fewer Conditions

10-Day Weather Forecast

Almanac

Astronomy

Aug. 30, 2014 Rise Set
Actual Time 6:31 AM CDT 7:39 PM CDT
Civil Twilight 6:03 AM CDT 8:07 PM CDT
Nautical Twilight 5:30 AM CDT 8:40 PM CDT
Astronomical Twilight 4:55 AM CDT 9:15 PM CDT
Moon 11:18 AM CDT 10:14 PM CDT
Length of Visible Light 14h 04m
Length of Day
13h 08m
Tomorrow will be 2m 30s shorter.
Waxing Crescent, 23% of the Moon is Illuminated
Today
Waxing Crescent
Sep 2
First Quarter
Sep 8
Full
Sep 15
Last Quarter
Sep 24
New

Today's Extremes

State Highs State Lows

Community

WunderPhotos

Upload Photos

1,748,555 photos uploaded!

WunderBlogs® & News

Nearby

Snow Depth

Station Depth Elevation
No new snow has been reported.

Earthquake Activity

City Distance Mag. Time & Date
No recent earthquake activity has been reported nearby.
Minimum magnitude displayed is 2.5.

Coastal Water Temperatures

Place Temperature
No Stations Reporting

Nearby Weather Stations